createdAt,value
2023-03-31T00:02:13.784Z,99623.69
2023-03-31T00:04:46.408Z,99612.56
2023-03-31T00:07:16.347Z,99591.91
2023-03-31T00:09:46.259Z,99596.16
2023-03-31T00:12:16.666Z,99591.91
2023-03-31T00:14:43.972Z,99571.25
2023-03-31T00:17:11.588Z,99581.63
2023-03-31T00:19:40.269Z,99599.63
2023-03-31T00:22:08.443Z,99605.69
2023-03-31T00:24:36.298Z,99616.91
2023-03-31T00:27:04.263Z,99616.97
2023-03-31T00:29:31.593Z,99608.41
2023-03-31T00:31:59.843Z,99603.22
2023-03-31T00:34:27.347Z,99598.06
2023-03-31T00:36:56.578Z,99599.78
2023-03-31T00:39:24.823Z,99599.78
2023-03-31T00:41:51.656Z,99598.91
2023-03-31T00:44:27.927Z,99590.34
2023-03-31T00:47:06.425Z,99596.34
2023-03-31T00:49:57.116Z,99586.91
2023-03-31T00:52:38.627Z,99593.72
2023-03-31T00:55:09.241Z,99588.66
2023-03-31T00:57:42.019Z,99595.53
2023-03-31T01:00:16.858Z,99609.31
2023-03-31T01:02:52.350Z,99598.97
2023-03-31T01:05:40.201Z,99606.75
2023-03-31T01:08:07.560Z,99608.41
2023-03-31T01:10:41.800Z,99611.84
2023-03-31T01:13:15.033Z,99617.03
2023-03-31T01:15:43.346Z,99619.53
2023-03-31T01:18:12.706Z,99628.88
2023-03-31T01:21:03.865Z,99604.88
2023-03-31T01:23:48.793Z,99603.16
2023-03-31T01:26:30.623Z,99625.56
2023-03-31T01:29:06.163Z,99627.22
2023-03-31T01:31:51.218Z,99593.72
2023-03-31T01:34:52.990Z,99595.44
2023-03-31T01:37:45.191Z,99606.56
2023-03-31T01:40:33.537Z,99611.75
2023-03-31T01:43:06.257Z,99603.22
2023-03-31T01:45:35.890Z,99612.59
2023-03-31T01:48:08.175Z,99612.63
2023-03-31T01:51:03.275Z,99595.38
2023-03-31T01:53:35.674Z,99610.81
2023-03-31T01:56:10.122Z,99612.50
2023-03-31T01:58:39.562Z,99616.75
2023-03-31T02:01:23.469Z,99613.41
2023-03-31T02:03:56.774Z,99625.41
2023-03-31T02:06:29.328Z,99636.44
2023-03-31T02:09:02.260Z,99626.03
2023-03-31T02:11:32.508Z,99605.50
2023-03-31T02:14:02.002Z,99620.06
2023-03-31T02:16:32.407Z,99624.34
2023-03-31T02:19:03.955Z,99606.16
2023-03-31T02:21:33.378Z,99618.22
2023-03-31T02:24:04.468Z,99616.44
2023-03-31T02:26:37.986Z,99606.13
2023-03-31T02:29:04.858Z,99614.59
2023-03-31T02:32:03.889Z,99605.19
2023-03-31T02:34:30.690Z,99605.19
2023-03-31T02:36:57.357Z,99612.91
2023-03-31T02:39:30.390Z,99624.72
2023-03-31T02:41:57.459Z,99618.00
2023-03-31T02:44:24.679Z,99616.28
2023-03-31T02:46:51.853Z,99610.25
2023-03-31T02:49:19.821Z,99613.66
2023-03-31T02:52:27.228Z,99609.34
2023-03-31T02:55:19.945Z,99615.44
2023-03-31T02:57:52.420Z,99618.78
2023-03-31T03:00:24.941Z,99612.03
2023-03-31T03:03:03.718Z,99617.06
2023-03-31T03:05:49.858Z,99611.72
2023-03-31T03:08:27.930Z,99599.59
2023-03-31T03:11:18.327Z,99601.34
2023-03-31T03:13:49.903Z,99600.59
2023-03-31T03:16:25.896Z,99584.72
2023-03-31T03:19:00.733Z,99561.75
2023-03-31T03:21:28.008Z,99573.00
2023-03-31T03:23:54.890Z,99583.34
2023-03-31T03:26:23.606Z,99581.66
2023-03-31T03:28:53.422Z,99585.03
2023-03-31T03:31:23.846Z,99583.25
2023-03-31T03:33:51.043Z,99571.94
2023-03-31T03:36:19.041Z,99572.00
2023-03-31T03:38:45.703Z,99572.81
2023-03-31T03:41:12.293Z,99581.47
2023-03-31T03:43:38.837Z,99571.94
2023-03-31T03:46:05.750Z,99564.06
2023-03-31T03:48:32.631Z,99551.16
2023-03-31T03:51:02.601Z,99540.09
2023-03-31T03:53:29.191Z,99559.13
2023-03-31T03:55:55.973Z,99575.28
2023-03-31T03:58:22.731Z,99571.88
2023-03-31T04:00:50.109Z,99564.81
2023-03-31T04:03:16.944Z,99560.69
2023-03-31T04:05:43.698Z,99560.69
2023-03-31T04:08:10.438Z,99586.59
2023-03-31T04:10:38.297Z,99591.53
2023-03-31T04:13:04.913Z,99586.28
2023-03-31T04:15:31.495Z,99591.50
2023-03-31T04:17:58.437Z,99588.94
2023-03-31T04:20:27.978Z,99601.78
2023-03-31T04:22:54.858Z,99596.59
2023-03-31T04:25:22.801Z,99598.34
2023-03-31T04:27:55.389Z,99605.28
2023-03-31T04:30:24.004Z,99607.72
2023-03-31T04:32:56.362Z,99599.94
2023-03-31T04:35:24.906Z,99602.47
2023-03-31T04:37:59.228Z,99603.38
2023-03-31T04:40:26.095Z,99588.00
2023-03-31T04:42:52.672Z,99601.75
2023-03-31T04:45:19.244Z,99610.44
2023-03-31T04:47:45.818Z,99611.19
2023-03-31T04:50:16.087Z,99621.50
2023-03-31T04:52:43.883Z,99623.25
2023-03-31T04:55:10.686Z,99644.69
2023-03-31T04:57:37.402Z,99650.63
2023-03-31T05:00:08.176Z,99659.22
2023-03-31T05:02:34.993Z,99661.78
2023-03-31T05:05:01.641Z,99670.34
2023-03-31T05:07:28.250Z,99679.00
2023-03-31T05:09:54.787Z,99687.69
2023-03-31T05:12:21.596Z,99700.59
2023-03-31T05:14:48.242Z,99702.22
2023-03-31T05:17:14.782Z,99696.28
2023-03-31T05:19:41.431Z,99715.19
2023-03-31T05:22:07.948Z,99719.56
2023-03-31T05:24:34.648Z,99725.59
2023-03-31T05:27:01.578Z,99734.28
2023-03-31T05:29:28.128Z,99750.59
2023-03-31T05:31:55.413Z,99759.13
2023-03-31T05:34:22.248Z,99753.94
2023-03-31T05:36:50.533Z,99751.41
2023-03-31T05:39:17.128Z,99751.47
2023-03-31T05:41:43.673Z,99756.56
2023-03-31T05:44:10.468Z,99760.88
2023-03-31T05:46:37.059Z,99756.56
2023-03-31T05:49:03.634Z,99751.47
2023-03-31T05:51:30.450Z,99760.91
2023-03-31T05:53:56.972Z,99769.56
2023-03-31T05:56:23.855Z,99774.69
2023-03-31T05:58:50.638Z,99770.41
2023-03-31T06:01:22.864Z,99761.84
2023-03-31T06:03:50.225Z,99767.03
2023-03-31T06:06:17.210Z,99767.97
2023-03-31T06:08:45.973Z,99767.97
2023-03-31T06:11:19.474Z,99779.16
2023-03-31T06:13:46.864Z,99774.88
2023-03-31T06:16:15.636Z,99772.34
2023-03-31T06:18:42.462Z,99756.22
2023-03-31T06:21:13.811Z,99761.34
2023-03-31T06:23:40.395Z,99765.59
2023-03-31T06:26:08.619Z,99772.44
2023-03-31T06:28:36.234Z,99786.19
2023-03-31T06:31:06.065Z,99797.13
2023-03-31T06:33:34.277Z,99780.84
2023-03-31T06:36:04.190Z,99774.88
2023-03-31T06:38:31.570Z,99784.34
2023-03-31T06:40:58.818Z,99768.13
2023-03-31T06:43:25.422Z,99777.56
2023-03-31T06:45:56.875Z,99783.59
2023-03-31T06:48:25.439Z,99793.94
2023-03-31T06:50:54.302Z,99799.06
2023-03-31T06:53:22.370Z,99794.72
2023-03-31T06:55:49.095Z,99788.91
2023-03-31T06:58:15.759Z,99810.25
2023-03-31T07:00:42.539Z,99825.72
2023-03-31T07:03:09.259Z,99840.44
2023-03-31T07:05:35.879Z,99863.75
2023-03-31T07:08:02.709Z,99873.41
2023-03-31T07:10:31.207Z,99891.56
2023-03-31T07:12:58.318Z,99895.97
2023-03-31T07:15:26.078Z,99910.63
2023-03-31T07:17:54.083Z,99914.13
2023-03-31T07:20:20.936Z,99910.66
2023-03-31T07:22:48.804Z,99917.56
2023-03-31T07:25:17.540Z,99931.38
2023-03-31T07:27:44.605Z,99922.81
2023-03-31T07:30:16.434Z,99929.75
2023-03-31T07:32:43.641Z,99921.25
2023-03-31T07:35:11.821Z,99908.28
2023-03-31T07:37:41.235Z,99904.03
2023-03-31T07:40:10.030Z,99906.78
2023-03-31T07:42:36.801Z,99912.00
2023-03-31T07:45:06.092Z,99918.06
2023-03-31T07:47:33.407Z,99911.94
2023-03-31T07:50:00.060Z,99924.88
2023-03-31T07:52:26.648Z,99923.13
2023-03-31T07:54:53.328Z,99920.47
2023-03-31T07:57:20.100Z,99906.66
2023-03-31T07:59:47.421Z,99911.88
2023-03-31T08:02:16.596Z,99914.53
2023-03-31T08:04:44.454Z,99903.34
2023-03-31T08:07:13.136Z,99915.28
2023-03-31T08:09:40.431Z,99912.53
2023-03-31T08:12:07.386Z,99908.31
2023-03-31T08:14:41.181Z,99905.72
2023-03-31T08:17:09.508Z,99916.00
2023-03-31T08:19:36.133Z,99921.19
2023-03-31T08:22:02.963Z,99929.69
2023-03-31T08:24:29.518Z,99929.63
2023-03-31T08:26:56.251Z,99934.03
2023-03-31T08:29:22.781Z,99932.34
2023-03-31T08:31:49.355Z,99936.63
2023-03-31T08:34:16.021Z,99935.66
2023-03-31T08:36:42.988Z,99945.19
2023-03-31T08:39:09.685Z,99950.34
2023-03-31T08:41:57.445Z,99950.22
2023-03-31T08:44:31.131Z,99950.22
2023-03-31T08:47:00.867Z,99955.44
2023-03-31T08:49:30.397Z,99970.03
2023-03-31T08:52:02.513Z,99966.50
2023-03-31T08:54:36.693Z,99970.00
2023-03-31T08:57:11.365Z,99961.47
2023-03-31T08:59:39.117Z,99960.59
2023-03-31T09:02:31.381Z,99964.91
2023-03-31T09:05:07.259Z,99964.84
2023-03-31T09:07:51.844Z,99964.84
2023-03-31T09:10:28.955Z,99966.50
2023-03-31T09:12:58.517Z,99961.34
2023-03-31T09:15:50.237Z,99962.41
2023-03-31T09:18:30.538Z,99953.09
2023-03-31T09:21:15.153Z,99965.03
2023-03-31T09:23:47.562Z,99960.75
2023-03-31T09:26:27.387Z,99975.31
2023-03-31T09:28:57.426Z,99983.84
2023-03-31T09:31:24.796Z,99976.00
2023-03-31T09:33:57.739Z,99986.47
2023-03-31T09:36:24.419Z,99990.81
2023-03-31T09:38:51.627Z,99993.31
2023-03-31T09:41:21.649Z,100003.72
2023-03-31T09:43:49.711Z,100015.66
2023-03-31T09:46:38.458Z,100000.28
2023-03-31T09:49:13.164Z,99995.38
2023-03-31T09:51:44.499Z,99984.91
2023-03-31T09:54:21.494Z,99970.38
2023-03-31T09:56:53.687Z,99969.38
2023-03-31T09:59:23.834Z,99969.56
2023-03-31T10:01:53.714Z,99974.06
2023-03-31T10:04:25.900Z,99980.88
2023-03-31T10:06:54.336Z,99998.97
2023-03-31T10:09:27.470Z,99979.72
2023-03-31T10:11:58.981Z,99976.63
2023-03-31T10:14:45.013Z,99986.03
2023-03-31T10:17:28.101Z,99967.91
2023-03-31T10:19:58.542Z,99968.94
2023-03-31T10:22:32.833Z,99963.09
2023-03-31T10:25:22.177Z,99955.41
2023-03-31T10:27:53.016Z,99956.91
2023-03-31T10:30:35.343Z,99939.84
2023-03-31T10:33:19.172Z,99941.88
2023-03-31T10:35:54.481Z,99935.75
2023-03-31T10:38:48.227Z,99935.00
2023-03-31T10:41:20.567Z,99936.72
2023-03-31T10:44:00.500Z,99928.25
2023-03-31T10:46:44.230Z,99927.59
2023-03-31T10:49:26.452Z,99911.91
2023-03-31T10:51:55.388Z,99926.84
2023-03-31T10:54:22.231Z,99936.16
2023-03-31T10:56:54.904Z,99911.03
2023-03-31T11:00:06.108Z,99917.94
2023-03-31T11:03:13.796Z,99926.53
2023-03-31T11:05:55.526Z,99931.69
2023-03-31T11:08:34.005Z,99937.53
2023-03-31T11:11:28.791Z,99940.94
2023-03-31T11:14:38.293Z,99940.88
2023-03-31T11:17:13.606Z,99935.75
2023-03-31T11:20:07.225Z,99936.72
2023-03-31T11:22:56.334Z,99930.94
2023-03-31T11:25:28.977Z,99938.19
2023-03-31T11:28:34.141Z,99924.53
2023-03-31T11:31:22.257Z,99912.56
2023-03-31T11:34:01.696Z,99905.03
2023-03-31T11:36:43.650Z,99903.47
2023-03-31T11:39:35.377Z,99908.59
2023-03-31T11:42:08.581Z,99892.22
2023-03-31T11:44:46.245Z,99909.94
2023-03-31T11:47:19.017Z,99892.97
2023-03-31T11:49:54.377Z,99890.25
2023-03-31T11:52:29.337Z,99883.41
2023-03-31T11:55:21.552Z,99892.19
2023-03-31T11:57:56.744Z,99896.53
2023-03-31T12:00:28.637Z,99889.69
2023-03-31T12:03:04.678Z,99897.56
2023-03-31T12:05:34.539Z,99888.91
2023-03-31T12:08:08.565Z,99888.88
2023-03-31T12:10:43.796Z,99890.44
2023-03-31T12:13:47.523Z,99880.91
2023-03-31T12:16:38.414Z,99881.78
2023-03-31T12:19:14.282Z,99885.13
2023-03-31T12:21:48.303Z,99885.25
2023-03-31T12:24:14.980Z,99884.38
2023-03-31T12:27:30.190Z,99877.31
2023-03-31T12:30:14.572Z,99900.63
2023-03-31T12:32:46.752Z,99880.09
2023-03-31T12:35:27.455Z,99874.84
2023-03-31T12:38:19.230Z,99887.03
2023-03-31T12:40:49.236Z,99871.38
2023-03-31T12:43:42.196Z,99881.84
2023-03-31T12:46:39.641Z,99894.84
2023-03-31T12:49:43.849Z,99888.78
2023-03-31T12:52:44.432Z,99869.91
2023-03-31T12:55:52.156Z,99870.84
2023-03-31T12:58:32.433Z,99860.47
2023-03-31T13:01:08.375Z,99846.69
2023-03-31T13:03:35.420Z,99837.09
2023-03-31T13:06:03.653Z,99856.03
2023-03-31T13:08:51.548Z,99856.13
2023-03-31T13:11:22.625Z,99870.69
2023-03-31T13:14:00.871Z,99858.47
2023-03-31T13:16:28.855Z,99861.81
2023-03-31T13:18:56.310Z,99864.53
2023-03-31T13:21:24.934Z,99857.44
2023-03-31T13:23:53.560Z,99873.81
2023-03-31T13:26:40.206Z,99864.06
2023-03-31T13:29:16.525Z,99859.03
2023-03-31T13:32:01.345Z,99856.72
2023-03-31T13:34:31.242Z,99856.94
2023-03-31T13:37:36.891Z,99859.81
2023-03-31T13:40:28.321Z,99860.84
2023-03-31T13:43:16.633Z,99859.22
2023-03-31T13:46:14.354Z,99848.22
2023-03-31T13:49:06.009Z,99843.19
2023-03-31T13:51:50.461Z,99841.41
2023-03-31T13:54:29.841Z,99847.41
2023-03-31T13:57:38.394Z,99843.16
2023-03-31T14:00:12.468Z,99826.16
2023-03-31T14:03:03.467Z,99836.50
2023-03-31T14:05:39.884Z,99828.75
2023-03-31T14:08:25.773Z,99846.03
2023-03-31T14:10:53.068Z,99845.16
2023-03-31T14:13:29.265Z,99839.09
2023-03-31T14:16:02.506Z,99823.59
2023-03-31T14:18:33.888Z,99829.63
2023-03-31T14:21:18.765Z,99834.78
2023-03-31T14:24:18.511Z,99813.34
2023-03-31T14:27:06.570Z,99819.38
2023-03-31T14:29:55.977Z,99816.84
2023-03-31T14:32:45.973Z,99822.91
2023-03-31T14:35:28.969Z,99819.41
2023-03-31T14:37:56.950Z,99817.72
2023-03-31T14:40:25.463Z,99810.09
2023-03-31T14:42:52.524Z,99834.25
2023-03-31T14:45:25.238Z,99841.22
2023-03-31T14:48:14.969Z,99817.94
2023-03-31T14:50:46.622Z,99805.94
2023-03-31T14:53:18.278Z,99805.13
2023-03-31T14:55:58.040Z,99811.16
2023-03-31T14:58:35.013Z,99820.69
2023-03-31T15:01:06.986Z,99804.19
2023-03-31T15:03:37.547Z,99807.63
2023-03-31T15:06:05.390Z,99793.16
2023-03-31T15:08:33.117Z,99810.31
2023-03-31T15:11:12.926Z,99805.22
2023-03-31T15:14:01.229Z,99818.13
2023-03-31T15:16:42.655Z,99808.69
2023-03-31T15:19:22.961Z,99822.44
2023-03-31T15:21:56.486Z,99815.34
2023-03-31T15:24:23.780Z,99803.34
2023-03-31T15:27:02.450Z,99811.91
2023-03-31T15:29:38.435Z,99810.19
2023-03-31T15:32:13.492Z,99835.25
2023-03-31T15:34:43.321Z,99836.94
2023-03-31T15:37:10.615Z,99830.81
2023-03-31T15:39:38.607Z,99824.72
2023-03-31T15:42:07.848Z,99822.13
2023-03-31T15:44:39.645Z,99821.31
2023-03-31T15:47:21.740Z,99835.97
2023-03-31T15:49:55.404Z,99838.50
2023-03-31T15:52:26.438Z,99838.41
2023-03-31T15:54:53.222Z,99841.91
2023-03-31T15:57:19.966Z,99832.38
2023-03-31T16:02:25.693Z,99825.53
2023-03-31T16:04:57.057Z,99836.69
2023-03-31T16:07:27.430Z,99848.63
2023-03-31T16:10:09.081Z,99846.78
2023-03-31T16:12:39.997Z,99858.84
2023-03-31T16:15:06.959Z,99858.84
2023-03-31T16:17:50.566Z,99852.75
2023-03-31T16:20:24.763Z,99857.88
2023-03-31T16:23:01.181Z,99842.09
2023-03-31T16:25:31.738Z,99847.16
2023-03-31T16:28:01.353Z,99854.94
2023-03-31T16:30:40.103Z,99854.41
2023-03-31T16:33:18.200Z,99849.06
2023-03-31T16:35:51.302Z,99856.97
2023-03-31T16:38:18.551Z,99845.13
2023-03-31T16:40:47.255Z,99848.72
2023-03-31T16:43:21.922Z,99848.94
2023-03-31T16:45:56.654Z,99850.63
2023-03-31T16:48:26.025Z,99844.41
2023-03-31T16:50:54.549Z,99860.69
2023-03-31T16:53:34.629Z,99858.19
2023-03-31T16:56:09.796Z,99846.66
2023-03-31T16:58:37.798Z,99864.56
2023-03-31T17:01:08.862Z,99893.16
2023-03-31T17:03:38.427Z,99860.28
2023-03-31T17:06:10.810Z,99867.22
2023-03-31T17:08:39.717Z,99862.88
2023-03-31T17:11:14.082Z,99861.09
2023-03-31T17:13:42.234Z,99867.03
2023-03-31T17:16:19.165Z,99851.84
2023-03-31T17:18:48.846Z,99866.56
2023-03-31T17:21:19.494Z,99865.34
2023-03-31T17:23:46.988Z,99875.63
2023-03-31T17:26:14.563Z,99887.66
2023-03-31T17:28:41.725Z,99884.00
2023-03-31T17:31:16.889Z,99889.41
2023-03-31T17:33:44.053Z,99885.81
2023-03-31T17:36:11.517Z,99909.78
2023-03-31T17:38:42.025Z,99895.09
2023-03-31T17:41:13.046Z,99894.97
2023-03-31T17:43:40.244Z,99902.09
2023-03-31T17:46:13.268Z,99901.25
2023-03-31T17:48:40.492Z,99901.84
2023-03-31T17:51:14.903Z,99898.16
2023-03-31T17:53:42.075Z,99922.09
2023-03-31T17:56:09.063Z,99912.69
2023-03-31T17:58:35.797Z,99913.53
2023-03-31T18:01:04.981Z,99907.72
2023-03-31T18:03:31.740Z,99931.47
2023-03-31T18:06:03.361Z,99921.91
2023-03-31T18:08:30.088Z,99932.16
2023-03-31T18:10:56.770Z,99934.56
2023-03-31T18:13:24.337Z,99929.25
2023-03-31T18:15:52.898Z,99940.25
2023-03-31T18:18:20.749Z,99938.63
2023-03-31T18:20:47.911Z,99940.94
2023-03-31T18:23:14.935Z,99942.72
2023-03-31T18:25:48.380Z,99941.75
2023-03-31T18:28:17.715Z,99944.34
2023-03-31T18:30:44.802Z,99953.75
2023-03-31T18:33:11.646Z,99961.34
2023-03-31T18:35:39.124Z,99961.25
2023-03-31T18:38:06.104Z,99956.16
2023-03-31T18:40:32.894Z,99958.53
2023-03-31T18:42:59.507Z,99967.78
2023-03-31T18:45:28.075Z,99961.03
2023-03-31T18:47:55.073Z,99973.47
2023-03-31T18:50:23.309Z,99962.44
2023-03-31T18:52:52.513Z,99976.94
2023-03-31T18:55:20.310Z,99979.38
2023-03-31T18:57:47.340Z,99980.50
2023-03-31T19:00:14.924Z,99989.75
2023-03-31T19:02:42.077Z,99994.84
2023-03-31T19:05:09.264Z,99992.34
2023-03-31T19:07:36.006Z,99993.97
2023-03-31T19:10:02.671Z,99996.56
2023-03-31T19:12:29.198Z,100000.66
2023-03-31T19:14:56.052Z,100011.94
2023-03-31T19:17:22.657Z,100022.78
2023-03-31T19:19:50.228Z,100032.88
2023-03-31T19:22:17.023Z,100031.81
2023-03-31T19:24:45.141Z,100025.06
2023-03-31T19:27:13.179Z,100029.34
2023-03-31T19:29:39.724Z,100023.44
2023-03-31T19:32:06.469Z,100019.88
2023-03-31T19:34:33.878Z,100030.94
2023-03-31T19:37:02.146Z,100048.72
2023-03-31T19:39:28.787Z,100036.63
2023-03-31T19:41:55.405Z,100047.03
2023-03-31T19:44:22.112Z,100047.03
2023-03-31T19:46:48.653Z,100044.53
2023-03-31T19:49:15.500Z,100052.91
2023-03-31T19:51:42.274Z,100041.13
2023-03-31T19:54:11.383Z,100050.31
2023-03-31T19:56:38.493Z,100059.81
2023-03-31T19:59:06.001Z,100066.34
2023-03-31T20:01:32.829Z,100055.28
2023-03-31T20:03:59.743Z,100054.63
2023-03-31T20:06:29.742Z,100070.88
2023-03-31T20:08:58.859Z,100066.75
2023-03-31T20:11:27.038Z,100059.00
2023-03-31T20:13:55.255Z,100063.03
2023-03-31T20:16:24.493Z,100057.97
2023-03-31T20:18:56.895Z,100070.59
2023-03-31T20:21:27.257Z,100068.69
2023-03-31T20:23:54.863Z,100071.44
2023-03-31T20:26:25.260Z,100069.75
2023-03-31T20:28:54.480Z,100066.34
2023-03-31T20:31:24.509Z,100082.34
2023-03-31T20:33:53.611Z,100078.84
2023-03-31T20:36:23.725Z,100074.63
2023-03-31T20:38:52.416Z,100077.97
2023-03-31T20:41:21.162Z,100079.41
2023-03-31T20:43:48.382Z,100081.84
2023-03-31T20:46:15.055Z,100076.75
2023-03-31T20:48:44.744Z,100078.56
2023-03-31T20:51:15.362Z,100073.34
2023-03-31T20:53:48.819Z,100083.59
2023-03-31T20:56:18.696Z,100083.44
2023-03-31T20:58:46.409Z,100085.09
2023-03-31T21:01:14.312Z,100085.13
2023-03-31T21:03:50.634Z,100089.59
2023-03-31T21:06:18.941Z,100092.16
2023-03-31T21:08:50.583Z,100092.13
2023-03-31T21:11:18.125Z,100088.28
2023-03-31T21:13:45.593Z,100078.97
2023-03-31T21:16:12.702Z,100084.91
2023-03-31T21:18:39.350Z,100083.13
2023-03-31T21:21:09.009Z,100088.13
2023-03-31T21:23:35.845Z,100093.22
2023-03-31T21:26:03.936Z,100100.94
2023-03-31T21:28:32.595Z,100104.22
2023-03-31T21:31:05.149Z,100102.41
2023-03-31T21:33:33.394Z,100099.09
2023-03-31T21:36:00.109Z,100099.09
2023-03-31T21:38:28.593Z,100099.03
2023-03-31T21:40:58.250Z,100103.28
2023-03-31T21:43:26.026Z,100096.56
2023-03-31T21:45:57.545Z,100103.31
2023-03-31T21:48:26.450Z,100104.94
2023-03-31T21:50:54.940Z,100104.94
2023-03-31T21:53:23.099Z,100103.44
2023-03-31T21:55:55.425Z,100098.09
2023-03-31T21:58:28.675Z,100100.59
2023-03-31T22:01:02.078Z,100092.00
2023-03-31T22:03:29.198Z,100105.69
2023-03-31T22:05:56.901Z,100103.03
2023-03-31T22:08:24.240Z,100108.31
2023-03-31T22:10:53.090Z,100102.25
2023-03-31T22:13:21.821Z,100098.81
2023-03-31T22:15:48.757Z,100100.63
2023-03-31T22:18:16.782Z,100104.75
2023-03-31T22:20:44.091Z,100097.06
2023-03-31T22:23:10.871Z,100101.94
2023-03-31T22:25:37.805Z,100108.69
2023-03-31T22:28:07.044Z,100102.81
2023-03-31T22:30:34.131Z,100107.31
2023-03-31T22:33:01.153Z,100101.38
2023-03-31T22:35:28.656Z,100107.47
2023-03-31T22:37:55.665Z,100106.28
2023-03-31T22:40:22.279Z,100113.63
2023-03-31T22:42:48.900Z,100101.00
2023-03-31T22:45:16.482Z,100101.88
2023-03-31T22:47:43.185Z,100097.47
2023-03-31T22:50:10.622Z,100095.78
2023-03-31T22:52:37.293Z,100093.41
2023-03-31T22:55:04.271Z,100085.63
2023-03-31T22:57:31.147Z,100087.31
2023-03-31T22:59:57.691Z,100096.06
2023-03-31T23:02:24.678Z,100095.91
2023-03-31T23:04:51.388Z,100095.91
2023-03-31T23:07:18.023Z,100102.41
2023-03-31T23:09:44.544Z,100101.84
2023-03-31T23:12:11.116Z,100092.13
2023-03-31T23:14:37.879Z,100096.97
2023-03-31T23:17:04.470Z,100100.56
2023-03-31T23:19:31.959Z,100104.63
2023-03-31T23:21:58.514Z,100094.34
2023-03-31T23:24:25.786Z,100104.53
2023-03-31T23:26:52.527Z,100092.72
2023-03-31T23:29:19.155Z,100095.94
2023-03-31T23:31:45.851Z,100088.09
2023-03-31T23:34:13.958Z,100084.06
2023-03-31T23:36:40.637Z,100087.66
2023-03-31T23:39:07.244Z,100089.31
2023-03-31T23:41:34.108Z,100084.94
2023-03-31T23:44:00.734Z,100082.16
2023-03-31T23:46:28.180Z,100082.09
2023-03-31T23:48:54.983Z,100070.44
2023-03-31T23:51:21.521Z,100075.31
2023-03-31T23:53:48.123Z,100071.03
2023-03-31T23:56:14.959Z,100065.16
2023-03-31T23:58:43.097Z,100071.06
